Terminal Aerodrome Forecast
Issued by NWS Upton, NY

Home | Current Version | Previous Version | Text Only | Print | Product List | Glossary On
Versions: 1 2 3 4 5 6 7 8 9 10 11 12 13 14 15 16 17 18 19 20 21 22 23 24 25 26 27
000
FTUS41 KOKX 310224 AAA
TAFLGA
TAF AMD
KLGA 310224Z 3102/3124 22006KT P6SM FEW020 BKN100
      TEMPO 3103/3107 BKN020
     FM310800 32006KT P6SM FEW100 SCT250
     FM311600 28011G17KT P6SM FEW060 SCT250
     FM312300 29010KT P6SM FEW250=

USA.gov is the U.S. government's official web portal to all federal, state and local government web resources and services.